| State | Missouri | Latest | Unknown (29300 cfs) | |
| River | Osage River | Rating | Observed | Estimated |
| Updated | 2026-05-10 12:45 (1 hour ago) | Flood - The river is flooding. Obstacles can be treacherous or deadly. The river should be avoided at this stage for casual trips and definitely for the inexperienced. Trips should be attempted only with protective gear and equipment.Flood | (none) | (none) |
| Discharge | 29300 cfs (median: 17400 cfs) | High - The river is high and potentially dangerous, especially for the young and / or inexperienced. Normal stream obstacles are sometimes difficult to navigate. Extended distances can be attempted, but canoe travel may not be advisable.High | (none) | (none) |
| Height | 11.6 feet | Good - Conditions are ideal for a canoe or kayak. Boats typically will drag on fewer than one-quarter of riffles, if at all, and portages are unnecessary or rare. Normal float lengths can be attempted without a problem.Good | (none) | (none) |
| Trend | Falling (falling over 24 hours) | Low - River is low but can still be floated. Some riffles are okay but most come with significant dragging and might need a portage. Float lengths should be reduced to accommodate low flow, dragging, and portages.Low | (none) | (none) |
| USGS | USGS Site ( Duck Duck Go Maps) | Poor - River is too low to float comfortably. Most or all riffles will drag or must be portaged and some obstacles (such as slick shelf rock) cause undue problems. Avoid the river at this stage for casual paddling trips.Poor | (none) | (none) |
| Date | Start | End | Distance | Condition | Discharge | Height | Fishing | Details |
|---|
A total of 0 rows are displayed.
BLG - Bluegill
CCF - Channel Catfish
CP - Chain Pickerel
FWD - Freshwater Drum
GSF - Green Sunfish
KSB - Kentucky Spotted Bass
LMB - Largemouth Bass
LSF - Longear Sunfish
RB - Rock Bass / Goggle Eye
RSF - Redear Sunfish
RT - Rainbow Trout
SMB - Smallmouth Bass
WB - White Bass
WF - Whitefish
WL - WalleyeThe classic River Trips application is still available for use. It is updated with the new system using a data retrofit. It is no longer maintained. The original River Trips application is no longer updated (as of 1 Dec 2016) but can be checked for errors or for the condition of the data before it was converted to the new system.
| Observation | Height | Discharge | Maximum Discharge | Minimum Discharge | Mean Discharge | P05 | P10 | P20 | P25 | P50 (Median) | P75 | P80 | P90 | P95 |
|---|---|---|---|---|---|---|---|---|---|---|---|---|---|---|
| 2026-05-10 12:45 | 11.60 | 29300 | 54600 (2009) | 697 (2005) | 21300 | 932 | 1490 | 2240 | 3000 | 17400 | 36400 | 38800 | 47900 | 52600 |
| 2026-05-10 11:45 | 11.66 | 29400 | 54600 (2009) | 697 (2005) | 21300 | 932 | 1490 | 2240 | 3000 | 17400 | 36400 | 38800 | 47900 | 52600 |
| 2026-05-10 10:45 | 11.73 | 29700 | 54600 (2009) | 697 (2005) | 21300 | 932 | 1490 | 2240 | 3000 | 17400 | 36400 | 38800 | 47900 | 52600 |
| 2026-05-10 09:45 | 11.79 | 29900 | 54600 (2009) | 697 (2005) | 21300 | 932 | 1490 | 2240 | 3000 | 17400 | 36400 | 38800 | 47900 | 52600 |
| 2026-05-10 08:45 | 11.78 | 29900 | 54600 (2009) | 697 (2005) | 21300 | 932 | 1490 | 2240 | 3000 | 17400 | 36400 | 38800 | 47900 | 52600 |
| 2026-05-10 07:45 | 11.76 | 29800 | 54600 (2009) | 697 (2005) | 21300 | 932 | 1490 | 2240 | 3000 | 17400 | 36400 | 38800 | 47900 | 52600 |
| 2026-05-10 06:45 | 11.68 | 29500 | 54600 (2009) | 697 (2005) | 21300 | 932 | 1490 | 2240 | 3000 | 17400 | 36400 | 38800 | 47900 | 52600 |
| 2026-05-10 05:45 | 11.53 | 29000 | 54600 (2009) | 697 (2005) | 21300 | 932 | 1490 | 2240 | 3000 | 17400 | 36400 | 38800 | 47900 | 52600 |
| 2026-05-10 04:45 | 11.42 | 28600 | 54600 (2009) | 697 (2005) | 21300 | 932 | 1490 | 2240 | 3000 | 17400 | 36400 | 38800 | 47900 | 52600 |
| 2026-05-10 03:45 | 11.32 | 28200 | 54600 (2009) | 697 (2005) | 21300 | 932 | 1490 | 2240 | 3000 | 17400 | 36400 | 38800 | 47900 | 52600 |
| 2026-05-10 02:45 | 11.16 | 27600 | 54600 (2009) | 697 (2005) | 21300 | 932 | 1490 | 2240 | 3000 | 17400 | 36400 | 38800 | 47900 | 52600 |
| 2026-05-10 01:45 | 11.05 | 27200 | 54600 (2009) | 697 (2005) | 21300 | 932 | 1490 | 2240 | 3000 | 17400 | 36400 | 38800 | 47900 | 52600 |
| 2026-05-10 00:45 | 10.96 | 26900 | 54600 (2009) | 697 (2005) | 21300 | 932 | 1490 | 2240 | 3000 | 17400 | 36400 | 38800 | 47900 | 52600 |
| 2026-05-09 23:45 | 10.96 | 26900 | 54600 (2009) | 697 (2005) | 21300 | 932 | 1490 | 2240 | 3000 | 17400 | 36400 | 38800 | 47900 | 52600 |
| 2026-05-09 22:45 | 11.01 | 27100 | 61400 (2009) | 718 (2005) | 23200 | 1040 | 1720 | 2420 | 4200 | 22900 | 35900 | 39400 | 53800 | 59200 |
| 2026-05-09 21:45 | 11.08 | 27300 | 61400 (2009) | 718 (2005) | 23200 | 1040 | 1720 | 2420 | 4200 | 22900 | 35900 | 39400 | 53800 | 59200 |
| 2026-05-09 20:45 | 11.21 | 27800 | 61400 (2009) | 718 (2005) | 23200 | 1040 | 1720 | 2420 | 4200 | 22900 | 35900 | 39400 | 53800 | 59200 |
| 2026-05-09 19:45 | 11.34 | 28300 | 61400 (2009) | 718 (2005) | 23200 | 1040 | 1720 | 2420 | 4200 | 22900 | 35900 | 39400 | 53800 | 59200 |
| 2026-05-09 18:45 | 11.48 | 28800 | 61400 (2009) | 718 (2005) | 23200 | 1040 | 1720 | 2420 | 4200 | 22900 | 35900 | 39400 | 53800 | 59200 |
| 2026-05-09 17:45 | 11.63 | 29400 | 61400 (2009) | 718 (2005) | 23200 | 1040 | 1720 | 2420 | 4200 | 22900 | 35900 | 39400 | 53800 | 59200 |
| 2026-05-09 16:45 | 11.81 | 30000 | 61400 (2009) | 718 (2005) | 23200 | 1040 | 1720 | 2420 | 4200 | 22900 | 35900 | 39400 | 53800 | 59200 |
| 2026-05-09 15:45 | 11.96 | 30600 | 61400 (2009) | 718 (2005) | 23200 | 1040 | 1720 | 2420 | 4200 | 22900 | 35900 | 39400 | 53800 | 59200 |
| 2026-05-09 14:45 | 12.18 | 31400 | 61400 (2009) | 718 (2005) | 23200 | 1040 | 1720 | 2420 | 4200 | 22900 | 35900 | 39400 | 53800 | 59200 |
| 2026-05-09 13:45 | 12.39 | 32300 | 61400 (2009) | 718 (2005) | 23200 | 1040 | 1720 | 2420 | 4200 | 22900 | 35900 | 39400 | 53800 | 59200 |
| 2026-05-09 12:45 | 12.57 | 32900 | 61400 (2009) | 718 (2005) | 23200 | 1040 | 1720 | 2420 | 4200 | 22900 | 35900 | 39400 | 53800 | 59200 |
| 2026-05-09 11:45 | 12.75 | 33700 | 61400 (2009) | 718 (2005) | 23200 | 1040 | 1720 | 2420 | 4200 | 22900 | 35900 | 39400 | 53800 | 59200 |
| 2026-05-09 10:45 | 12.90 | 34200 | 61400 (2009) | 718 (2005) | 23200 | 1040 | 1720 | 2420 | 4200 | 22900 | 35900 | 39400 | 53800 | 59200 |
| 2026-05-09 09:45 | 13.05 | 34900 | 61400 (2009) | 718 (2005) | 23200 | 1040 | 1720 | 2420 | 4200 | 22900 | 35900 | 39400 | 53800 | 59200 |
| 2026-05-09 08:45 | 13.16 | 35300 | 61400 (2009) | 718 (2005) | 23200 | 1040 | 1720 | 2420 | 4200 | 22900 | 35900 | 39400 | 53800 | 59200 |
| 2026-05-09 07:45 | 13.32 | 35900 | 61400 (2009) | 718 (2005) | 23200 | 1040 | 1720 | 2420 | 4200 | 22900 | 35900 | 39400 | 53800 | 59200 |
| 2026-05-09 06:45 | 13.47 | 36600 | 61400 (2009) | 718 (2005) | 23200 | 1040 | 1720 | 2420 | 4200 | 22900 | 35900 | 39400 | 53800 | 59200 |
| 2026-05-09 05:45 | 13.54 | 36800 | 61400 (2009) | 718 (2005) | 23200 | 1040 | 1720 | 2420 | 4200 | 22900 | 35900 | 39400 | 53800 | 59200 |
| 2026-05-09 04:45 | 13.64 | 37300 | 61400 (2009) | 718 (2005) | 23200 | 1040 | 1720 | 2420 | 4200 | 22900 | 35900 | 39400 | 53800 | 59200 |
| 2026-05-09 03:45 | 13.67 | 37400 | 61400 (2009) | 718 (2005) | 23200 | 1040 | 1720 | 2420 | 4200 | 22900 | 35900 | 39400 | 53800 | 59200 |
| 2026-05-09 02:45 | 13.67 | 37400 | 61400 (2009) | 718 (2005) | 23200 | 1040 | 1720 | 2420 | 4200 | 22900 | 35900 | 39400 | 53800 | 59200 |
| 2026-05-09 01:45 | 13.63 | 37200 | 61400 (2009) | 718 (2005) | 23200 | 1040 | 1720 | 2420 | 4200 | 22900 | 35900 | 39400 | 53800 | 59200 |
| 2026-05-09 00:45 | 13.64 | 37300 | 61400 (2009) | 718 (2005) | 23200 | 1040 | 1720 | 2420 | 4200 | 22900 | 35900 | 39400 | 53800 | 59200 |
| 2026-05-08 23:45 | 13.63 | 37200 | 61400 (2009) | 718 (2005) | 23200 | 1040 | 1720 | 2420 | 4200 | 22900 | 35900 | 39400 | 53800 | 59200 |
| 2026-05-08 22:45 | 13.62 | 37200 | 57000 (2024) | 737 (2005) | 23000 | 782 | 1420 | 1810 | 2190 | 28000 | 36200 | 39700 | 45700 | 55900 |
| 2026-05-08 21:45 | 13.60 | 37100 | 57000 (2024) | 737 (2005) | 23000 | 782 | 1420 | 1810 | 2190 | 28000 | 36200 | 39700 | 45700 | 55900 |
| 2026-05-08 20:45 | 13.57 | 37000 | 57000 (2024) | 737 (2005) | 23000 | 782 | 1420 | 1810 | 2190 | 28000 | 36200 | 39700 | 45700 | 55900 |
| 2026-05-08 19:45 | 13.55 | 36900 | 57000 (2024) | 737 (2005) | 23000 | 782 | 1420 | 1810 | 2190 | 28000 | 36200 | 39700 | 45700 | 55900 |
| 2026-05-08 18:45 | 13.49 | 36600 | 57000 (2024) | 737 (2005) | 23000 | 782 | 1420 | 1810 | 2190 | 28000 | 36200 | 39700 | 45700 | 55900 |
| 2026-05-08 17:45 | 13.53 | 36800 | 57000 (2024) | 737 (2005) | 23000 | 782 | 1420 | 1810 | 2190 | 28000 | 36200 | 39700 | 45700 | 55900 |
| 2026-05-08 16:45 | 13.48 | 36600 | 57000 (2024) | 737 (2005) | 23000 | 782 | 1420 | 1810 | 2190 | 28000 | 36200 | 39700 | 45700 | 55900 |
| 2026-05-08 15:45 | 13.47 | 36600 | 57000 (2024) | 737 (2005) | 23000 | 782 | 1420 | 1810 | 2190 | 28000 | 36200 | 39700 | 45700 | 55900 |
| 2026-05-08 14:45 | 13.45 | 36500 | 57000 (2024) | 737 (2005) | 23000 | 782 | 1420 | 1810 | 2190 | 28000 | 36200 | 39700 | 45700 | 55900 |
| 2026-05-08 13:45 | 13.41 | 36300 | 57000 (2024) | 737 (2005) | 23000 | 782 | 1420 | 1810 | 2190 | 28000 | 36200 | 39700 | 45700 | 55900 |
| 2026-05-08 12:45 | 13.42 | 36300 | 57000 (2024) | 737 (2005) | 23000 | 782 | 1420 | 1810 | 2190 | 28000 | 36200 | 39700 | 45700 | 55900 |
| 2026-05-08 11:45 | 13.40 | 36300 | 57000 (2024) | 737 (2005) | 23000 | 782 | 1420 | 1810 | 2190 | 28000 | 36200 | 39700 | 45700 | 55900 |
| 2026-05-08 10:45 | 13.34 | 36000 | 57000 (2024) | 737 (2005) | 23000 | 782 | 1420 | 1810 | 2190 | 28000 | 36200 | 39700 | 45700 | 55900 |
| 2026-05-08 09:45 | 13.36 | 36100 | 57000 (2024) | 737 (2005) | 23000 | 782 | 1420 | 1810 | 2190 | 28000 | 36200 | 39700 | 45700 | 55900 |
| 2026-05-08 08:45 | 13.33 | 36000 | 57000 (2024) | 737 (2005) | 23000 | 782 | 1420 | 1810 | 2190 | 28000 | 36200 | 39700 | 45700 | 55900 |
| 2026-05-08 07:45 | 13.33 | 36000 | 57000 (2024) | 737 (2005) | 23000 | 782 | 1420 | 1810 | 2190 | 28000 | 36200 | 39700 | 45700 | 55900 |
| 2026-05-08 06:45 | 13.31 | 35900 | 57000 (2024) | 737 (2005) | 23000 | 782 | 1420 | 1810 | 2190 | 28000 | 36200 | 39700 | 45700 | 55900 |
| 2026-05-08 05:45 | 13.30 | 35800 | 57000 (2024) | 737 (2005) | 23000 | 782 | 1420 | 1810 | 2190 | 28000 | 36200 | 39700 | 45700 | 55900 |
| 2026-05-08 04:45 | 13.29 | 35800 | 57000 (2024) | 737 (2005) | 23000 | 782 | 1420 | 1810 | 2190 | 28000 | 36200 | 39700 | 45700 | 55900 |
| 2026-05-08 03:45 | 13.31 | 35900 | 57000 (2024) | 737 (2005) | 23000 | 782 | 1420 | 1810 | 2190 | 28000 | 36200 | 39700 | 45700 | 55900 |
| 2026-05-08 02:45 | 13.32 | 35900 | 57000 (2024) | 737 (2005) | 23000 | 782 | 1420 | 1810 | 2190 | 28000 | 36200 | 39700 | 45700 | 55900 |
| 2026-05-08 01:45 | 13.31 | 35900 | 57000 (2024) | 737 (2005) | 23000 | 782 | 1420 | 1810 | 2190 | 28000 | 36200 | 39700 | 45700 | 55900 |
| 2026-05-08 00:45 | 13.36 | 36100 | 57000 (2024) | 737 (2005) | 23000 | 782 | 1420 | 1810 | 2190 | 28000 | 36200 | 39700 | 45700 | 55900 |
| 2026-05-07 23:45 | 13.32 | 35900 | 57000 (2024) | 737 (2005) | 23000 | 782 | 1420 | 1810 | 2190 | 28000 | 36200 | 39700 | 45700 | 55900 |
| 2026-05-07 22:45 | 13.35 | 36100 | 49100 (2009) | 772 (2005) | 22000 | 778 | 1210 | 1660 | 2210 | 25500 | 35700 | 36300 | 48600 | 48900 |
| 2026-05-07 21:45 | 13.32 | 35900 | 49100 (2009) | 772 (2005) | 22000 | 778 | 1210 | 1660 | 2210 | 25500 | 35700 | 36300 | 48600 | 48900 |
| 2026-05-07 20:45 | 13.32 | 35900 | 49100 (2009) | 772 (2005) | 22000 | 778 | 1210 | 1660 | 2210 | 25500 | 35700 | 36300 | 48600 | 48900 |
| 2026-05-07 19:45 | 13.34 | 36000 | 49100 (2009) | 772 (2005) | 22000 | 778 | 1210 | 1660 | 2210 | 25500 | 35700 | 36300 | 48600 | 48900 |
| 2026-05-07 18:45 | 13.35 | 36100 | 49100 (2009) | 772 (2005) | 22000 | 778 | 1210 | 1660 | 2210 | 25500 | 35700 | 36300 | 48600 | 48900 |
| 2026-05-07 17:45 | 13.38 | 36200 | 49100 (2009) | 772 (2005) | 22000 | 778 | 1210 | 1660 | 2210 | 25500 | 35700 | 36300 | 48600 | 48900 |
| 2026-05-07 16:45 | 13.41 | 36300 | 49100 (2009) | 772 (2005) | 22000 | 778 | 1210 | 1660 | 2210 | 25500 | 35700 | 36300 | 48600 | 48900 |
| 2026-05-07 15:45 | 13.48 | 36600 | 49100 (2009) | 772 (2005) | 22000 | 778 | 1210 | 1660 | 2210 | 25500 | 35700 | 36300 | 48600 | 48900 |
| 2026-05-07 14:45 | 13.50 | 36700 | 49100 (2009) | 772 (2005) | 22000 | 778 | 1210 | 1660 | 2210 | 25500 | 35700 | 36300 | 48600 | 48900 |
| 2026-05-07 13:45 | 13.50 | 36700 | 49100 (2009) | 772 (2005) | 22000 | 778 | 1210 | 1660 | 2210 | 25500 | 35700 | 36300 | 48600 | 48900 |
| 2026-05-07 12:45 | 13.56 | 36900 | 49100 (2009) | 772 (2005) | 22000 | 778 | 1210 | 1660 | 2210 | 25500 | 35700 | 36300 | 48600 | 48900 |
| 2026-05-07 11:45 | 13.54 | 36800 | 49100 (2009) | 772 (2005) | 22000 | 778 | 1210 | 1660 | 2210 | 25500 | 35700 | 36300 | 48600 | 48900 |
| 2026-05-07 10:45 | 13.58 | 37000 | 49100 (2009) | 772 (2005) | 22000 | 778 | 1210 | 1660 | 2210 | 25500 | 35700 | 36300 | 48600 | 48900 |
| 2026-05-07 09:45 | 13.54 | 36800 | 49100 (2009) | 772 (2005) | 22000 | 778 | 1210 | 1660 | 2210 | 25500 | 35700 | 36300 | 48600 | 48900 |
| 2026-05-07 08:45 | 13.57 | 37000 | 49100 (2009) | 772 (2005) | 22000 | 778 | 1210 | 1660 | 2210 | 25500 | 35700 | 36300 | 48600 | 48900 |
| 2026-05-07 07:45 | 13.55 | 36900 | 49100 (2009) | 772 (2005) | 22000 | 778 | 1210 | 1660 | 2210 | 25500 | 35700 | 36300 | 48600 | 48900 |
| 2026-05-07 06:45 | 13.55 | 36900 | 49100 (2009) | 772 (2005) | 22000 | 778 | 1210 | 1660 | 2210 | 25500 | 35700 | 36300 | 48600 | 48900 |
| 2026-05-07 05:45 | 13.56 | 36900 | 49100 (2009) | 772 (2005) | 22000 | 778 | 1210 | 1660 | 2210 | 25500 | 35700 | 36300 | 48600 | 48900 |
| 2026-05-07 04:45 | 13.52 | 36800 | 49100 (2009) | 772 (2005) | 22000 | 778 | 1210 | 1660 | 2210 | 25500 | 35700 | 36300 | 48600 | 48900 |
| 2026-05-07 03:45 | 13.53 | 36800 | 49100 (2009) | 772 (2005) | 22000 | 778 | 1210 | 1660 | 2210 | 25500 | 35700 | 36300 | 48600 | 48900 |
| 2026-05-07 02:45 | 13.51 | 36700 | 49100 (2009) | 772 (2005) | 22000 | 778 | 1210 | 1660 | 2210 | 25500 | 35700 | 36300 | 48600 | 48900 |
| 2026-05-07 01:45 | 13.49 | 36600 | 49100 (2009) | 772 (2005) | 22000 | 778 | 1210 | 1660 | 2210 | 25500 | 35700 | 36300 | 48600 | 48900 |
| 2026-05-07 00:45 | 13.50 | 36700 | 49100 (2009) | 772 (2005) | 22000 | 778 | 1210 | 1660 | 2210 | 25500 | 35700 | 36300 | 48600 | 48900 |
| 2026-05-06 23:45 | 13.47 | 36600 | 49100 (2009) | 772 (2005) | 22000 | 778 | 1210 | 1660 | 2210 | 25500 | 35700 | 36300 | 48600 | 48900 |
| 2026-05-06 22:45 | 13.45 | 36500 | 62500 (2022) | 644 (2000) | 22700 | 735 | 1340 | 2050 | 2330 | 26100 | 34100 | 35200 | 47200 | 57300 |
| 2026-05-06 21:45 | 13.45 | 36500 | 62500 (2022) | 644 (2000) | 22700 | 735 | 1340 | 2050 | 2330 | 26100 | 34100 | 35200 | 47200 | 57300 |
| 2026-05-06 20:45 | 13.39 | 36200 | 62500 (2022) | 644 (2000) | 22700 | 735 | 1340 | 2050 | 2330 | 26100 | 34100 | 35200 | 47200 | 57300 |
| 2026-05-06 19:45 | 13.39 | 36200 | 62500 (2022) | 644 (2000) | 22700 | 735 | 1340 | 2050 | 2330 | 26100 | 34100 | 35200 | 47200 | 57300 |
| 2026-05-06 18:45 | 13.34 | 36000 | 62500 (2022) | 644 (2000) | 22700 | 735 | 1340 | 2050 | 2330 | 26100 | 34100 | 35200 | 47200 | 57300 |
| 2026-05-06 17:45 | 13.32 | 35900 | 62500 (2022) | 644 (2000) | 22700 | 735 | 1340 | 2050 | 2330 | 26100 | 34100 | 35200 | 47200 | 57300 |
| 2026-05-06 16:45 | 13.27 | 35800 | 62500 (2022) | 644 (2000) | 22700 | 735 | 1340 | 2050 | 2330 | 26100 | 34100 | 35200 | 47200 | 57300 |
| 2026-05-06 15:45 | 13.23 | 35600 | 62500 (2022) | 644 (2000) | 22700 | 735 | 1340 | 2050 | 2330 | 26100 | 34100 | 35200 | 47200 | 57300 |
| 2026-05-06 14:45 | 13.23 | 35600 | 62500 (2022) | 644 (2000) | 22700 | 735 | 1340 | 2050 | 2330 | 26100 | 34100 | 35200 | 47200 | 57300 |
| 2026-05-06 13:45 | 13.19 | 35400 | 62500 (2022) | 644 (2000) | 22700 | 735 | 1340 | 2050 | 2330 | 26100 | 34100 | 35200 | 47200 | 57300 |
| 2026-05-06 12:45 | 13.13 | 35200 | 62500 (2022) | 644 (2000) | 22700 | 735 | 1340 | 2050 | 2330 | 26100 | 34100 | 35200 | 47200 | 57300 |
| 2026-05-06 11:45 | 13.11 | 35100 | 62500 (2022) | 644 (2000) | 22700 | 735 | 1340 | 2050 | 2330 | 26100 | 34100 | 35200 | 47200 | 57300 |
| 2026-05-06 10:45 | 13.06 | 34900 | 62500 (2022) | 644 (2000) | 22700 | 735 | 1340 | 2050 | 2330 | 26100 | 34100 | 35200 | 47200 | 57300 |
| 2026-05-06 09:45 | 13.00 | 34600 | 62500 (2022) | 644 (2000) | 22700 | 735 | 1340 | 2050 | 2330 | 26100 | 34100 | 35200 | 47200 | 57300 |
| 2026-05-06 08:45 | 12.95 | 34400 | 62500 (2022) | 644 (2000) | 22700 | 735 | 1340 | 2050 | 2330 | 26100 | 34100 | 35200 | 47200 | 57300 |
| 2026-05-06 07:45 | 12.93 | 34400 | 62500 (2022) | 644 (2000) | 22700 | 735 | 1340 | 2050 | 2330 | 26100 | 34100 | 35200 | 47200 | 57300 |
| 2026-05-06 06:45 | 12.89 | 34200 | 62500 (2022) | 644 (2000) | 22700 | 735 | 1340 | 2050 | 2330 | 26100 | 34100 | 35200 | 47200 | 57300 |
| 2026-05-06 05:45 | 12.84 | 34000 | 62500 (2022) | 644 (2000) | 22700 | 735 | 1340 | 2050 | 2330 | 26100 | 34100 | 35200 | 47200 | 57300 |
| 2026-05-06 04:45 | 12.85 | 34100 | 62500 (2022) | 644 (2000) | 22700 | 735 | 1340 | 2050 | 2330 | 26100 | 34100 | 35200 | 47200 | 57300 |
| 2026-05-06 03:45 | 12.86 | 34100 | 62500 (2022) | 644 (2000) | 22700 | 735 | 1340 | 2050 | 2330 | 26100 | 34100 | 35200 | 47200 | 57300 |
| 2026-05-06 02:45 | 12.92 | 34300 | 62500 (2022) | 644 (2000) | 22700 | 735 | 1340 | 2050 | 2330 | 26100 | 34100 | 35200 | 47200 | 57300 |
| 2026-05-06 01:45 | 13.00 | 34600 | 62500 (2022) | 644 (2000) | 22700 | 735 | 1340 | 2050 | 2330 | 26100 | 34100 | 35200 | 47200 | 57300 |
| 2026-05-06 00:45 | 13.12 | 35100 | 62500 (2022) | 644 (2000) | 22700 | 735 | 1340 | 2050 | 2330 | 26100 | 34100 | 35200 | 47200 | 57300 |
| 2026-05-05 23:45 | 13.23 | 35600 | 62500 (2022) | 644 (2000) | 22700 | 735 | 1340 | 2050 | 2330 | 26100 | 34100 | 35200 | 47200 | 57300 |
| 2026-05-05 22:45 | 13.34 | 36000 | 58000 (2017) | 673 (2000) | 23500 | 888 | 1440 | 2100 | 3220 | 27900 | 34400 | 37800 | 52100 | 57100 |
| 2026-05-05 21:45 | 13.39 | 36200 | 58000 (2017) | 673 (2000) | 23500 | 888 | 1440 | 2100 | 3220 | 27900 | 34400 | 37800 | 52100 | 57100 |
| 2026-05-05 20:45 | 13.41 | 36300 | 58000 (2017) | 673 (2000) | 23500 | 888 | 1440 | 2100 | 3220 | 27900 | 34400 | 37800 | 52100 | 57100 |
| 2026-05-05 19:45 | 13.39 | 36200 | 58000 (2017) | 673 (2000) | 23500 | 888 | 1440 | 2100 | 3220 | 27900 | 34400 | 37800 | 52100 | 57100 |
| 2026-05-05 18:45 | 13.38 | 36200 | 58000 (2017) | 673 (2000) | 23500 | 888 | 1440 | 2100 | 3220 | 27900 | 34400 | 37800 | 52100 | 57100 |
| 2026-05-05 17:45 | 13.36 | 36100 | 58000 (2017) | 673 (2000) | 23500 | 888 | 1440 | 2100 | 3220 | 27900 | 34400 | 37800 | 52100 | 57100 |
| 2026-05-05 16:45 | 13.36 | 36100 | 58000 (2017) | 673 (2000) | 23500 | 888 | 1440 | 2100 | 3220 | 27900 | 34400 | 37800 | 52100 | 57100 |
| 2026-05-05 15:45 | 13.34 | 36000 | 58000 (2017) | 673 (2000) | 23500 | 888 | 1440 | 2100 | 3220 | 27900 | 34400 | 37800 | 52100 | 57100 |
| 2026-05-05 14:45 | 13.33 | 36000 | 58000 (2017) | 673 (2000) | 23500 | 888 | 1440 | 2100 | 3220 | 27900 | 34400 | 37800 | 52100 | 57100 |
| 2026-05-05 13:45 | 13.26 | 35700 | 58000 (2017) | 673 (2000) | 23500 | 888 | 1440 | 2100 | 3220 | 27900 | 34400 | 37800 | 52100 | 57100 |
| 2026-05-05 12:45 | 13.23 | 35600 | 58000 (2017) | 673 (2000) | 23500 | 888 | 1440 | 2100 | 3220 | 27900 | 34400 | 37800 | 52100 | 57100 |
| 2026-05-05 11:45 | 13.14 | 35200 | 58000 (2017) | 673 (2000) | 23500 | 888 | 1440 | 2100 | 3220 | 27900 | 34400 | 37800 | 52100 | 57100 |
| 2026-05-05 10:45 | 13.10 | 35100 | 58000 (2017) | 673 (2000) | 23500 | 888 | 1440 | 2100 | 3220 | 27900 | 34400 | 37800 | 52100 | 57100 |
| 2026-05-05 09:45 | 13.07 | 34900 | 58000 (2017) | 673 (2000) | 23500 | 888 | 1440 | 2100 | 3220 | 27900 | 34400 | 37800 | 52100 | 57100 |
| 2026-05-05 08:45 | 13.01 | 34700 | 58000 (2017) | 673 (2000) | 23500 | 888 | 1440 | 2100 | 3220 | 27900 | 34400 | 37800 | 52100 | 57100 |
| 2026-05-05 07:45 | 12.94 | 34400 | 58000 (2017) | 673 (2000) | 23500 | 888 | 1440 | 2100 | 3220 | 27900 | 34400 | 37800 | 52100 | 57100 |
| 2026-05-05 06:45 | 12.85 | 34100 | 58000 (2017) | 673 (2000) | 23500 | 888 | 1440 | 2100 | 3220 | 27900 | 34400 | 37800 | 52100 | 57100 |
| 2026-05-05 05:45 | 12.78 | 33800 | 58000 (2017) | 673 (2000) | 23500 | 888 | 1440 | 2100 | 3220 | 27900 | 34400 | 37800 | 52100 | 57100 |
| 2026-05-05 04:45 | 12.66 | 33300 | 58000 (2017) | 673 (2000) | 23500 | 888 | 1440 | 2100 | 3220 | 27900 | 34400 | 37800 | 52100 | 57100 |
| 2026-05-05 03:45 | 12.57 | 32900 | 58000 (2017) | 673 (2000) | 23500 | 888 | 1440 | 2100 | 3220 | 27900 | 34400 | 37800 | 52100 | 57100 |
| 2026-05-05 02:45 | 12.46 | 32500 | 58000 (2017) | 673 (2000) | 23500 | 888 | 1440 | 2100 | 3220 | 27900 | 34400 | 37800 | 52100 | 57100 |
| 2026-05-05 01:45 | 12.28 | 31800 | 58000 (2017) | 673 (2000) | 23500 | 888 | 1440 | 2100 | 3220 | 27900 | 34400 | 37800 | 52100 | 57100 |
| 2026-05-05 00:45 | 12.12 | 31200 | 58000 (2017) | 673 (2000) | 23500 | 888 | 1440 | 2100 | 3220 | 27900 | 34400 | 37800 | 52100 | 57100 |
| 2026-05-04 23:45 | 11.95 | 30600 | 58000 (2017) | 673 (2000) | 23500 | 888 | 1440 | 2100 | 3220 | 27900 | 34400 | 37800 | 52100 | 57100 |
| 2026-05-04 22:45 | 11.70 | 29600 | 77300 (2017) | 934 (2000) | 23400 | 1160 | 1800 | 2860 | 3610 | 27000 | 33900 | 38500 | 41400 | 64400 |
| 2026-05-04 21:45 | 11.49 | 28800 | 77300 (2017) | 934 (2000) | 23400 | 1160 | 1800 | 2860 | 3610 | 27000 | 33900 | 38500 | 41400 | 64400 |
| 2026-05-04 20:45 | 11.20 | 27800 | 77300 (2017) | 934 (2000) | 23400 | 1160 | 1800 | 2860 | 3610 | 27000 | 33900 | 38500 | 41400 | 64400 |
| 2026-05-04 19:45 | 10.95 | 26800 | 77300 (2017) | 934 (2000) | 23400 | 1160 | 1800 | 2860 | 3610 | 27000 | 33900 | 38500 | 41400 | 64400 |
| 2026-05-04 18:45 | 10.64 | 25800 | 77300 (2017) | 934 (2000) | 23400 | 1160 | 1800 | 2860 | 3610 | 27000 | 33900 | 38500 | 41400 | 64400 |
| 2026-05-04 17:45 | 10.39 | 24900 | 77300 (2017) | 934 (2000) | 23400 | 1160 | 1800 | 2860 | 3610 | 27000 | 33900 | 38500 | 41400 | 64400 |
| 2026-05-04 16:45 | 10.10 | 23900 | 77300 (2017) | 934 (2000) | 23400 | 1160 | 1800 | 2860 | 3610 | 27000 | 33900 | 38500 | 41400 | 64400 |
| 2026-05-04 15:45 | 9.86 | 23100 | 77300 (2017) | 934 (2000) | 23400 | 1160 | 1800 | 2860 | 3610 | 27000 | 33900 | 38500 | 41400 | 64400 |
| 2026-05-04 14:45 | 9.67 | 22400 | 77300 (2017) | 934 (2000) | 23400 | 1160 | 1800 | 2860 | 3610 | 27000 | 33900 | 38500 | 41400 | 64400 |
| 2026-05-04 13:45 | 9.52 | 21900 | 77300 (2017) | 934 (2000) | 23400 | 1160 | 1800 | 2860 | 3610 | 27000 | 33900 | 38500 | 41400 | 64400 |
| 2026-05-04 12:45 | 9.44 | 21600 | 77300 (2017) | 934 (2000) | 23400 | 1160 | 1800 | 2860 | 3610 | 27000 | 33900 | 38500 | 41400 | 64400 |
| 2026-05-04 11:45 | 9.37 | 21300 | 77300 (2017) | 934 (2000) | 23400 | 1160 | 1800 | 2860 | 3610 | 27000 | 33900 | 38500 | 41400 | 64400 |
| 2026-05-04 10:45 | 9.34 | 21200 | 77300 (2017) | 934 (2000) | 23400 | 1160 | 1800 | 2860 | 3610 | 27000 | 33900 | 38500 | 41400 | 64400 |
| 2026-05-04 09:45 | 9.34 | 21200 | 77300 (2017) | 934 (2000) | 23400 | 1160 | 1800 | 2860 | 3610 | 27000 | 33900 | 38500 | 41400 | 64400 |
| 2026-05-04 08:45 | 9.35 | 21200 | 77300 (2017) | 934 (2000) | 23400 | 1160 | 1800 | 2860 | 3610 | 27000 | 33900 | 38500 | 41400 | 64400 |
| 2026-05-04 07:45 | 9.37 | 21300 | 77300 (2017) | 934 (2000) | 23400 | 1160 | 1800 | 2860 | 3610 | 27000 | 33900 | 38500 | 41400 | 64400 |
| 2026-05-04 06:45 | 9.40 | 21400 | 77300 (2017) | 934 (2000) | 23400 | 1160 | 1800 | 2860 | 3610 | 27000 | 33900 | 38500 | 41400 | 64400 |
| 2026-05-04 05:45 | 9.43 | 21500 | 77300 (2017) | 934 (2000) | 23400 | 1160 | 1800 | 2860 | 3610 | 27000 | 33900 | 38500 | 41400 | 64400 |
| 2026-05-04 04:45 | 9.44 | 21600 | 77300 (2017) | 934 (2000) | 23400 | 1160 | 1800 | 2860 | 3610 | 27000 | 33900 | 38500 | 41400 | 64400 |
| 2026-05-04 03:45 | 9.45 | 21600 | 77300 (2017) | 934 (2000) | 23400 | 1160 | 1800 | 2860 | 3610 | 27000 | 33900 | 38500 | 41400 | 64400 |
| 2026-05-04 02:45 | 9.40 | 21400 | 77300 (2017) | 934 (2000) | 23400 | 1160 | 1800 | 2860 | 3610 | 27000 | 33900 | 38500 | 41400 | 64400 |
| 2026-05-04 01:45 | 9.34 | 21200 | 77300 (2017) | 934 (2000) | 23400 | 1160 | 1800 | 2860 | 3610 | 27000 | 33900 | 38500 | 41400 | 64400 |
| 2026-05-04 00:45 | 9.27 | 20900 | 77300 (2017) | 934 (2000) | 23400 | 1160 | 1800 | 2860 | 3610 | 27000 | 33900 | 38500 | 41400 | 64400 |
| 2026-05-03 23:45 | 9.17 | 20500 | 77300 (2017) | 934 (2000) | 23400 | 1160 | 1800 | 2860 | 3610 | 27000 | 33900 | 38500 | 41400 | 64400 |
| 2026-05-03 22:45 | 9.12 | 20300 | 69400 (2017) | 1310 (2000) | 22900 | 1490 | 1880 | 3440 | 5060 | 25700 | 32800 | 36200 | 41900 | 57200 |
| 2026-05-03 21:45 | 9.13 | 20400 | 69400 (2017) | 1310 (2000) | 22900 | 1490 | 1880 | 3440 | 5060 | 25700 | 32800 | 36200 | 41900 | 57200 |
| 2026-05-03 20:45 | 9.14 | 20400 | 69400 (2017) | 1310 (2000) | 22900 | 1490 | 1880 | 3440 | 5060 | 25700 | 32800 | 36200 | 41900 | 57200 |
| 2026-05-03 19:45 | 9.17 | 20500 | 69400 (2017) | 1310 (2000) | 22900 | 1490 | 1880 | 3440 | 5060 | 25700 | 32800 | 36200 | 41900 | 57200 |
| 2026-05-03 18:45 | 9.21 | 20600 | 69400 (2017) | 1310 (2000) | 22900 | 1490 | 1880 | 3440 | 5060 | 25700 | 32800 | 36200 | 41900 | 57200 |
| 2026-05-03 17:45 | 9.29 | 21000 | 69400 (2017) | 1310 (2000) | 22900 | 1490 | 1880 | 3440 | 5060 | 25700 | 32800 | 36200 | 41900 | 57200 |
| 2026-05-03 16:45 | 9.38 | 21300 | 69400 (2017) | 1310 (2000) | 22900 | 1490 | 1880 | 3440 | 5060 | 25700 | 32800 | 36200 | 41900 | 57200 |
| 2026-05-03 15:45 | 9.54 | 22000 | 69400 (2017) | 1310 (2000) | 22900 | 1490 | 1880 | 3440 | 5060 | 25700 | 32800 | 36200 | 41900 | 57200 |
| 2026-05-03 14:45 | 9.70 | 22500 | 69400 (2017) | 1310 (2000) | 22900 | 1490 | 1880 | 3440 | 5060 | 25700 | 32800 | 36200 | 41900 | 57200 |
| 2026-05-03 13:45 | 9.87 | 23100 | 69400 (2017) | 1310 (2000) | 22900 | 1490 | 1880 | 3440 | 5060 | 25700 | 32800 | 36200 | 41900 | 57200 |
| 2026-05-03 12:45 | 10.06 | 23700 | 69400 (2017) | 1310 (2000) | 22900 | 1490 | 1880 | 3440 | 5060 | 25700 | 32800 | 36200 | 41900 | 57200 |
| 2026-05-03 11:45 | 10.24 | 24400 | 69400 (2017) | 1310 (2000) | 22900 | 1490 | 1880 | 3440 | 5060 | 25700 | 32800 | 36200 | 41900 | 57200 |
| 2026-05-03 10:45 | 10.41 | 25000 | 69400 (2017) | 1310 (2000) | 22900 | 1490 | 1880 | 3440 | 5060 | 25700 | 32800 | 36200 | 41900 | 57200 |
| 2026-05-03 09:45 | 10.57 | 25500 | 69400 (2017) | 1310 (2000) | 22900 | 1490 | 1880 | 3440 | 5060 | 25700 | 32800 | 36200 | 41900 | 57200 |
| 2026-05-03 08:45 | 10.70 | 26000 | 69400 (2017) | 1310 (2000) | 22900 | 1490 | 1880 | 3440 | 5060 | 25700 | 32800 | 36200 | 41900 | 57200 |
| 2026-05-03 07:45 | 10.79 | 26300 | 69400 (2017) | 1310 (2000) | 22900 | 1490 | 1880 | 3440 | 5060 | 25700 | 32800 | 36200 | 41900 | 57200 |
| 2026-05-03 06:45 | 10.86 | 26500 | 69400 (2017) | 1310 (2000) | 22900 | 1490 | 1880 | 3440 | 5060 | 25700 | 32800 | 36200 | 41900 | 57200 |
| 2026-05-03 05:45 | 10.92 | 26700 | 69400 (2017) | 1310 (2000) | 22900 | 1490 | 1880 | 3440 | 5060 | 25700 | 32800 | 36200 | 41900 | 57200 |
| 2026-05-03 04:45 | 11.01 | 27100 | 69400 (2017) | 1310 (2000) | 22900 | 1490 | 1880 | 3440 | 5060 | 25700 | 32800 | 36200 | 41900 | 57200 |
| 2026-05-03 03:45 | 11.09 | 27400 | 69400 (2017) | 1310 (2000) | 22900 | 1490 | 1880 | 3440 | 5060 | 25700 | 32800 | 36200 | 41900 | 57200 |
| 2026-05-03 02:45 | 11.22 | 27900 | 69400 (2017) | 1310 (2000) | 22900 | 1490 | 1880 | 3440 | 5060 | 25700 | 32800 | 36200 | 41900 | 57200 |
| 2026-05-03 01:45 | 11.36 | 28300 | 69400 (2017) | 1310 (2000) | 22900 | 1490 | 1880 | 3440 | 5060 | 25700 | 32800 | 36200 | 41900 | 57200 |
| 2026-05-03 00:45 | 11.49 | 28800 | 69400 (2017) | 1310 (2000) | 22900 | 1490 | 1880 | 3440 | 5060 | 25700 | 32800 | 36200 | 41900 | 57200 |
| 2026-05-02 23:45 | 11.59 | 29200 | 69400 (2017) | 1310 (2000) | 22900 | 1490 | 1880 | 3440 | 5060 | 25700 | 32800 | 36200 | 41900 | 57200 |
A total of 182 rows are displayed for years 1997 through 2025.